Sao Goncalo dos Campos, Brazil
Current Conditions -  °F | °C
As of 3:00 PM on Wednesday 28 Jan 2015 (Local Time) from SBSV Reporting Station
Clear Clear  
Wind Chill: 86°   Ceiling: Unl
Heat Index: 89°   Visibility: 6mi
Dew Point: 68°   Wind: 12mph
Humidity: 55%   Direction: 130°SE
Pressure: 29.91"   Gusts: NA
Location:  12.43°S, 38.97°W
Report Text: SBSV 281800Z 13010KT CAVOK 30/20 Q1013
Loading
Personal Weather Stations






























Interactive Weather Map New forecast layout! Learn more

10-Day Weather Forecast

Advertisements
Track Severe Weather on mobile